Etusivu
METAR-TAF:

METAR-TAF

Lentoasemat :

Mount Pleasant Municipal Airport

Mount Pleasant, Michigan, Yhdysvallat

Leveyspiiri: 43-37N, Pituuspiiri: 084-44W, korkeus merenpinnasta: 230 m

Tämänhetkinen sää

Tämä raportti tehtiin 10 minuuttia sitten, kello 12.55 UTC
tyyntä
Lämpötila 8°C
Kosteus 81%
Ilmanpaine 1023 hPa
Näkyvyys: 16.1 km
selkeää

METAR: KMOP 211255Z AUTO 00000KT 10SM CLR 08/05 A3020 RMK AO2 T00830048

Aika: 09:05 (13:05 UTC)


TAF: puuttuu

Säähavainnot ja -ennusteet yli 4000 lentoasemalta (METAR- ja TAF-raportit).

Käytössä olevat sääasemat on merkitty karttaan keltaisilla ja punaisilla pisteillä.

Aseta hiiri pisteen päälle nähdäksesi sääaseman nimen.

Klikkaa sitten nähdäksesi säähavainnot ja -ennusteet.

Kartan vaihtaminen: klikkaa mustalla rastilla varustettuja vihreitä pisteitä, niin voit zoomata sisään; viivalla varustettua vihreää pistettä, niin voit zoomata ulos tai vihreitä nuolia, niin pääset viereisille kartoille.


METAR-TAF: